Time;durP1;ratioP1;P1;durP2;ratioP2;P2;SDS_P1;SDS_P2;PMS_P1;PMS_P2;Temp;Humidity;BMP_temperature;BMP_pressure;BME280_temperature;BME280_humidity;BME280_pressure;Samples;Min_cycle;Max_cycle;Signal;HPM_P1;HPM_P2
2022/11/15 00:00:52;;;;;;;21.17;11.25;;;8.50;83.20;;;;;;5096080;28;20029;-15
2022/11/15 00:03:22;;;;;;;21.67;13.02;;;8.40;83.10;;;;;;5096361;28;20032;-14
2022/11/15 00:05:49;;;;;;;23.02;13.77;;;8.30;83.20;;;;;;5096321;28;20111;-13
2022/11/15 00:08:15;;;;;;;25.48;15.05;;;8.30;83.30;;;;;;5095998;28;20028;-14
2022/11/15 00:10:40;;;;;;;21.20;12.77;;;8.30;83.30;;;;;;5095960;28;20034;-14
2022/11/15 00:13:12;;;;;;;22.42;13.90;;;8.20;83.40;;;;;;5095934;28;20046;-15
2022/11/15 00:15:41;;;;;;;22.67;13.38;;;8.20;83.40;;;;;;5095757;28;20055;-15
2022/11/15 00:18:12;;;;;;;22.30;13.43;;;8.10;83.40;;;;;;5095722;28;20032;-14
2022/11/15 00:20:38;;;;;;;20.40;13.07;;;8.10;83.40;;;;;;5095777;28;20042;-14
2022/11/15 00:23:05;;;;;;;20.88;13.25;;;8.00;83.40;;;;;;5095862;28;20028;-14
2022/11/15 00:25:31;;;;;;;16.33;11.00;;;8.00;83.40;;;;;;5094457;28;20024;-14
2022/11/15 00:27:59;;;;;;;21.00;11.90;;;7.90;83.40;;;;;;5094406;28;20387;-13
2022/11/15 00:30:25;;;;;;;20.42;12.10;;;7.90;83.50;;;;;;5095784;28;20034;-14
2022/11/15 00:32:51;;;;;;;18.30;10.60;;;7.90;83.50;;;;;;5095016;28;20020;-13
2022/11/15 00:35:18;;;;;;;24.27;14.82;;;7.80;83.40;;;;;;5094088;28;20110;-13
2022/11/15 00:37:44;;;;;;;21.88;13.30;;;7.80;83.40;;;;;;5095562;28;20032;-13
2022/11/15 00:40:12;;;;;;;26.40;15.32;;;7.80;83.50;;;;;;5095421;28;20074;-13
2022/11/15 00:42:38;;;;;;;22.83;13.55;;;7.70;83.50;;;;;;5095363;28;20016;-14
2022/11/15 00:45:04;;;;;;;22.48;13.30;;;7.70;83.50;;;;;;5095042;28;20043;-13
2022/11/15 00:47:30;;;;;;;19.48;12.15;;;7.60;83.50;;;;;;5095245;28;20496;-14
2022/11/15 00:49:56;;;;;;;30.33;16.65;;;7.60;83.40;;;;;;5095486;28;20035;-14
2022/11/15 00:52:22;;;;;;;28.02;16.50;;;7.60;83.50;;;;;;5095398;28;20067;-14
2022/11/15 00:54:47;;;;;;;26.42;16.55;;;7.60;83.50;;;;;;5094926;28;20364;-14
2022/11/15 00:57:13;;;;;;;21.77;12.73;;;7.60;83.60;;;;;;5095472;28;20035;-13
2022/11/15 00:59:39;;;;;;;17.58;10.27;;;7.60;83.60;;;;;;5095183;28;20357;-14
2022/11/15 01:02:05;;;;;;;21.45;12.05;;;7.50;83.60;;;;;;5095070;28;20024;-14
2022/11/15 01:04:30;;;;;;;21.33;12.07;;;7.50;83.50;;;;;;5093642;28;20042;-14
2022/11/15 01:06:56;;;;;;;29.40;13.18;;;7.50;83.50;;;;;;5094588;28;20024;-13
2022/11/15 01:09:22;;;;;;;32.90;12.27;;;7.40;83.60;;;;;;5095175;28;20043;-14
2022/11/15 01:11:48;;;;;;;18.83;10.90;;;7.30;83.50;;;;;;5094944;28;20050;-14
2022/11/15 01:14:14;;;;;;;19.02;10.02;;;7.30;83.40;;;;;;5095008;28;20068;-14
2022/11/15 01:16:39;;;;;;;20.65;11.43;;;7.20;83.30;;;;;;5094682;28;20040;-14
2022/11/15 01:19:05;;;;;;;31.10;12.95;;;7.10;83.40;;;;;;5094390;28;20077;-13
2022/11/15 01:21:31;;;;;;;26.90;12.77;;;7.10;83.50;;;;;;5094618;28;20023;-13
2022/11/15 01:23:57;;;;;;;19.80;12.60;;;7.10;83.50;;;;;;5094777;28;20045;-14
2022/11/15 01:26:24;;;;;;;24.08;14.73;;;7.10;83.50;;;;;;5094518;28;20032;-14
2022/11/15 01:28:51;;;;;;;27.02;15.77;;;7.10;83.50;;;;;;5094470;28;20031;-15
2022/11/15 01:31:20;;;;;;;29.50;16.70;;;7.10;83.60;;;;;;5094388;28;20384;-14
2022/11/15 01:33:47;;;;;;;25.02;14.43;;;7.10;83.60;;;;;;5094407;28;20035;-14
2022/11/15 01:36:18;;;;;;;27.90;15.80;;;7.10;83.60;;;;;;5094555;28;20483;-15
2022/11/15 01:38:45;;;;;;;25.35;15.20;;;7.10;83.70;;;;;;5094309;28;20126;-14
2022/11/15 01:41:25;;;;;;;23.58;13.73;;;7.10;83.80;;;;;;5094097;28;20107;-13
2022/11/15 01:43:57;;;;;;;18.27;11.75;;;7.10;83.70;;;;;;5094061;28;20077;-15
2022/11/15 01:46:26;;;;;;;25.48;15.23;;;7.10;83.60;;;;;;5094405;28;20016;-13
2022/11/15 01:48:55;;;;;;;27.95;15.30;;;7.10;83.50;;;;;;5093974;28;20028;-13
2022/11/15 01:51:26;;;;;;;24.98;15.18;;;7.10;83.40;;;;;;5094278;28;20020;-14
2022/11/15 01:53:57;;;;;;;33.53;18.85;;;7.10;83.60;;;;;;5094115;28;20035;-15
2022/11/15 01:56:27;;;;;;;39.28;21.85;;;7.10;83.50;;;;;;5094298;28;20016;-14
2022/11/15 01:58:56;;;;;;;43.00;21.27;;;7.10;83.50;;;;;;5093849;28;20032;-14
2022/11/15 02:01:25;;;;;;;39.47;22.15;;;7.10;83.60;;;;;;5093823;28;20056;-14
2022/11/15 02:04:12;;;;;;;35.20;19.00;;;7.10;84.00;;;;;;5094153;28;20047;-14
2022/11/15 02:06:40;;;;;;;41.58;22.20;;;7.10;83.80;;;;;;5094067;28;20421;-13
2022/11/15 02:09:07;;;;;;;38.58;19.50;;;7.10;83.90;;;;;;5093662;28;20432;-14
2022/11/15 02:11:33;;;;;;;42.78;23.42;;;7.10;83.80;;;;;;5092428;28;20058;-15
2022/11/15 02:14:01;;;;;;;43.05;22.35;;;7.10;84.10;;;;;;5093972;28;20069;-15
2022/11/15 02:16:32;;;;;;;38.53;20.00;;;7.10;84.20;;;;;;5093336;28;20077;-15
2022/11/15 02:19:31;;;;;;;44.92;22.58;;;7.10;84.00;;;;;;5093331;28;20043;-15
2022/11/15 02:22:34;;;;;;;41.03;20.65;;;7.10;84.10;;;;;;5093852;28;20077;-15
2022/11/15 02:25:21;;;;;;;42.03;22.17;;;7.10;84.10;;;;;;5093234;28;20085;-14
2022/11/15 02:28:25;;;;;;;39.95;21.88;;;7.10;84.20;;;;;;5093768;28;20032;-14
2022/11/15 02:31:14;;;;;;;;;;;7.10;84.20;;;;;;5082872;28;20055;-14
2022/11/15 02:33:49;;;;;;;28.45;15.18;;;7.00;84.30;;;;;;5093852;28;19911;-14
2022/11/15 02:36:20;;;;;;;29.98;15.95;;;7.00;84.30;;;;;;5093495;28;20034;-14
2022/11/15 02:38:55;;;;;;;28.40;15.20;;;6.90;84.10;;;;;;5093528;28;20388;-15
2022/11/15 02:41:50;;;;;;;32.45;16.70;;;6.90;84.10;;;;;;5093455;28;20024;-15
2022/11/15 02:44:24;;;;;;;49.20;19.67;;;6.90;84.10;;;;;;5090226;28;20031;-15
2022/11/15 02:47:13;;;;;;;31.08;15.93;;;6.90;84.10;;;;;;5093067;28;20032;-15
2022/11/15 02:50:07;;;;;;;25.02;14.32;;;6.80;84.00;;;;;;5093500;28;20484;-14
2022/11/15 02:52:33;;;;;;;21.37;12.53;;;6.80;84.10;;;;;;5093358;28;20032;-15
2022/11/15 02:55:01;;;;;;;20.75;11.57;;;6.70;84.20;;;;;;5091648;28;20016;-14
2022/11/15 02:58:22;;;;;;;17.38;10.35;;;6.70;84.10;;;;;;5096084;28;20032;-14
2022/11/15 03:01:24;;;;;;;18.50;10.13;;;6.70;84.10;;;;;;5034167;28;20159;-15
2022/11/15 03:04:05;;;;;;;35.20;10.43;;;6.60;84.00;;;;;;5080999;28;20036;-15
2022/11/15 03:06:40;;;;;;;16.83;10.18;;;6.60;84.10;;;;;;5097194;28;20031;-14
2022/11/15 03:09:08;;;;;;;21.27;9.60;;;6.40;84.00;;;;;;5097330;28;20032;-15
2022/11/15 03:11:41;;;;;;;46.35;14.02;;;6.40;84.00;;;;;;5097997;28;20020;-15
2022/11/15 03:14:10;;;;;;;18.63;10.88;;;6.40;84.10;;;;;;5097307;28;20430;-14
2022/11/15 03:16:49;;;;;;;21.70;12.02;;;6.30;84.10;;;;;;5096790;28;20055;-15
2022/11/15 03:19:34;;;;;;;30.85;13.85;;;6.20;84.10;;;;;;5097061;28;20028;-15
2022/11/15 03:22:05;;;;;;;24.00;12.48;;;6.20;84.20;;;;;;5096848;28;20115;-14
2022/11/15 03:24:36;;;;;;;27.63;15.18;;;6.20;84.30;;;;;;5096949;28;20025;-15
2022/11/15 03:27:05;;;;;;;19.58;11.60;;;6.20;84.30;;;;;;5096680;28;20081;-15
2022/11/15 03:29:41;;;;;;;18.08;11.18;;;6.20;84.20;;;;;;5095514;28;20016;-14
2022/11/15 03:32:25;;;;;;;28.67;15.90;;;6.10;84.30;;;;;;5097101;28;20077;-15
2022/11/15 03:34:57;;;;;;;29.30;15.55;;;6.10;84.30;;;;;;5096512;28;20487;-15
2022/11/15 03:37:35;;;;;;;73.45;18.08;;;6.10;84.30;;;;;;5096692;28;20032;-15
2022/11/15 03:40:03;;;;;;;20.48;11.10;;;6.00;84.30;;;;;;5096640;28;20067;-15
2022/11/15 03:43:00;;;;;;;18.60;10.55;;;6.00;84.30;;;;;;5096510;28;20077;-14
2022/11/15 03:45:39;;;;;;;19.08;10.95;;;6.00;84.30;;;;;;5096116;28;20040;-14
2022/11/15 03:48:20;;;;;;;18.75;11.23;;;6.00;84.30;;;;;;5096818;28;20040;-14
2022/11/15 03:50:47;;;;;;;18.58;10.38;;;6.00;84.30;;;;;;5095134;28;20025;-14
2022/11/15 03:53:19;;;;;;;26.05;12.82;;;6.00;84.40;;;;;;5096554;28;20063;-14
2022/11/15 03:55:45;;;;;;;23.17;12.57;;;6.00;84.40;;;;;;5096743;28;20028;-15
2022/11/15 03:58:11;;;;;;;32.08;14.77;;;6.10;84.50;;;;;;5096132;28;20081;-14
2022/11/15 04:00:37;;;;;;;35.90;16.60;;;6.10;84.30;;;;;;5096496;28;20422;-14
2022/11/15 04:03:03;;;;;;;29.95;14.65;;;6.20;84.30;;;;;;5096233;28;20468;-14
2022/11/15 04:05:29;;;;;;;52.20;16.73;;;6.20;84.50;;;;;;5095969;28;20020;-14
2022/11/15 04:07:55;;;;;;;88.20;22.10;;;6.30;84.50;;;;;;5096329;28;20526;-14
2022/11/15 04:10:20;;;;;;;36.05;16.38;;;6.30;84.40;;;;;;5094715;28;20055;-14
2022/11/15 04:12:47;;;;;;;39.03;13.02;;;6.30;84.40;;;;;;5095952;28;20028;-15
2022/11/15 04:15:16;;;;;;;43.33;16.83;;;6.30;84.30;;;;;;5095879;28;20044;-15
2022/11/15 04:17:54;;;;;;;45.00;17.77;;;6.30;84.40;;;;;;5096024;28;20032;-14
2022/11/15 04:25:57;;;;;;;27.35;13.85;;;6.30;84.50;;;;;;5096058;28;20039;-15
2022/11/15 04:28:24;;;;;;;38.30;17.45;;;6.30;84.40;;;;;;5095674;28;20012;-14
2022/11/15 04:30:50;;;;;;;28.10;14.50;;;6.20;84.30;;;;;;5095437;28;20468;-14
2022/11/15 04:33:16;;;;;;;32.88;16.10;;;6.20;84.30;;;;;;5095896;28;20069;-14
2022/11/15 04:35:43;;;;;;;36.70;15.75;;;6.20;84.30;;;;;;5095750;28;20024;-14
2022/11/15 04:38:10;;;;;;;34.08;15.63;;;6.20;84.30;;;;;;5095425;28;20016;-13
2022/11/15 04:40:38;;;;;;;35.35;18.10;;;6.10;84.30;;;;;;5095406;28;20160;-14
2022/11/15 04:43:04;;;;;;;29.73;14.27;;;6.10;84.50;;;;;;5095760;28;20349;-14
2022/11/15 04:45:30;;;;;;;38.30;17.33;;;6.00;84.40;;;;;;5095643;28;20028;-14
2022/11/15 04:47:56;;;;;;;50.17;17.92;;;6.00;84.50;;;;;;5095479;28;20109;-14
2022/11/15 04:50:22;;;;;;;41.45;18.25;;;5.90;84.60;;;;;;5095763;28;20066;-15
2022/11/15 04:52:53;;;;;;;24.08;14.45;;;5.90;84.60;;;;;;5095282;28;20031;-14
2022/11/15 04:55:20;;;;;;;39.60;17.50;;;5.90;84.70;;;;;;5095107;28;20032;-14
2022/11/15 04:57:46;;;;;;;39.95;17.95;;;5.80;84.80;;;;;;5095526;28;20069;-14
2022/11/15 05:00:16;;;;;;;43.22;18.95;;;5.80;84.90;;;;;;5095034;28;20028;-15
2022/11/15 05:05:26;;;;;;;;;;;5.70;85.10;;;;;;5095477;28;20493;-14
2022/11/15 05:07:52;;;;;;;27.98;15.13;;;5.70;85.20;;;;;;5094807;28;19958;-14
2022/11/15 05:10:18;;;;;;;38.95;17.55;;;5.70;85.20;;;;;;5095097;28;20039;-15
2022/11/15 05:12:44;;;;;;;32.67;14.70;;;5.70;85.30;;;;;;5095138;28;20106;-14
2022/11/15 05:15:10;;;;;;;48.85;18.23;;;5.70;85.30;;;;;;5094357;28;20177;-14
2022/11/15 05:17:36;;;;;;;33.47;15.20;;;5.70;85.40;;;;;;5094941;28;20020;-14
2022/11/15 05:20:02;;;;;;;31.65;16.85;;;5.60;85.40;;;;;;5094491;28;20036;-13
2022/11/15 05:22:28;;;;;;;33.40;16.48;;;5.60;85.40;;;;;;5094882;28;20032;-13
2022/11/15 05:24:54;;;;;;;31.10;15.98;;;5.60;85.40;;;;;;5094417;28;20101;-14
2022/11/15 05:27:20;;;;;;;28.17;15.98;;;5.50;85.40;;;;;;5094883;28;20051;-14
2022/11/15 05:29:46;;;;;;;26.40;14.23;;;5.50;85.50;;;;;;5094877;28;20574;-14
2022/11/15 05:32:13;;;;;;;22.95;13.85;;;5.40;85.50;;;;;;5094599;28;20097;-14
2022/11/15 05:34:39;;;;;;;26.52;13.98;;;5.40;85.60;;;;;;5094414;28;20058;-14
2022/11/15 05:37:05;;;;;;;24.90;13.32;;;5.40;85.60;;;;;;5094052;28;20040;-14
2022/11/15 05:39:31;;;;;;;24.52;13.20;;;5.40;85.60;;;;;;5094554;28;20081;-14
2022/11/15 05:42:11;;;;;;;21.05;11.60;;;5.40;85.60;;;;;;5094403;28;20032;-14
2022/11/15 05:44:41;;;;;;;29.60;13.23;;;5.40;85.60;;;;;;5094521;28;20387;-14
2022/11/15 05:47:12;;;;;;;45.25;16.48;;;5.40;85.70;;;;;;5094295;28;20032;-14
2022/11/15 05:49:41;;;;;;;26.30;12.55;;;5.40;85.70;;;;;;5094437;28;20024;-13
2022/11/15 05:52:12;;;;;;;33.03;14.95;;;5.50;85.70;;;;;;5093989;28;20060;-15
2022/11/15 05:54:39;;;;;;;27.02;13.20;;;5.40;85.60;;;;;;5094278;28;20103;-14
2022/11/15 05:57:05;;;;;;;28.13;12.70;;;5.40;85.70;;;;;;5093773;28;20032;-14
2022/11/15 05:59:32;;;;;;;32.38;14.75;;;5.40;85.60;;;;;;5094660;28;20047;-14
2022/11/15 06:01:58;;;;;;;20.67;11.98;;;5.40;85.70;;;;;;5092673;28;20020;-13
2022/11/15 06:04:24;;;;;;;23.75;10.98;;;5.40;85.70;;;;;;5094197;28;20028;-14
2022/11/15 06:06:50;;;;;;;32.78;12.52;;;5.40;85.60;;;;;;5093462;28;20102;-15
2022/11/15 06:09:16;;;;;;;16.25;10.13;;;5.40;85.60;;;;;;5093795;28;20063;-13
2022/11/15 06:11:42;;;;;;;24.27;11.13;;;5.40;85.70;;;;;;5094030;28;20157;-14
2022/11/15 06:14:08;;;;;;;19.77;12.43;;;5.50;85.60;;;;;;5093875;28;20514;-15
2022/11/15 06:16:34;;;;;;;24.23;13.43;;;5.50;85.50;;;;;;5093354;28;20048;-14
2022/11/15 06:19:01;;;;;;;27.92;15.35;;;5.50;85.40;;;;;;5093683;28;20122;-14
2022/11/15 06:21:29;;;;;;;31.92;16.77;;;5.50;85.40;;;;;;5093779;28;20020;-14
2022/11/15 06:23:55;;;;;;;37.47;16.40;;;5.50;85.40;;;;;;5093538;28;20028;-14
2022/11/15 06:26:21;;;;;;;26.55;13.73;;;5.50;85.30;;;;;;5093838;28;20028;-14
2022/11/15 06:28:47;;;;;;;31.38;14.82;;;5.50;85.20;;;;;;5093668;28;20386;-15
2022/11/15 06:31:13;;;;;;;32.22;14.25;;;5.50;85.10;;;;;;5092440;28;20031;-13
2022/11/15 06:33:39;;;;;;;28.70;14.15;;;5.50;85.20;;;;;;5093383;28;20024;-15
2022/11/15 06:36:13;;;;;;;26.35;14.48;;;5.50;85.20;;;;;;5092126;28;20544;-14
2022/11/15 06:38:39;;;;;;;30.63;13.98;;;5.50;85.20;;;;;;5092087;28;20445;-14
2022/11/15 06:41:07;;;;;;;38.65;16.23;;;5.50;85.10;;;;;;5093392;28;20483;-14
2022/11/15 06:43:34;;;;;;;49.22;16.20;;;5.50;85.20;;;;;;5093590;28;20024;-14
2022/11/15 06:46:01;;;;;;;37.70;15.70;;;5.50;85.20;;;;;;5093536;28;20031;-12
2022/11/15 06:48:28;;;;;;;47.92;15.95;;;5.60;85.10;;;;;;5093510;28;20036;-15
2022/11/15 06:50:55;;;;;;;44.20;16.73;;;5.50;85.10;;;;;;5093243;28;20028;-11
2022/11/15 06:53:21;;;;;;;47.10;15.52;;;5.60;85.00;;;;;;5093450;28;20024;-15
2022/11/15 06:55:47;;;;;;;42.95;15.00;;;5.60;84.90;;;;;;5092266;28;20032;-14
2022/11/15 06:58:13;;;;;;;43.50;17.23;;;5.60;84.80;;;;;;5093024;28;20464;-15
2022/11/15 07:00:40;;;;;;;37.67;15.82;;;5.60;84.90;;;;;;5093609;28;20104;-14
2022/11/15 07:03:07;;;;;;;55.97;17.77;;;5.60;85.00;;;;;;5092843;28;20468;-14
2022/11/15 07:05:33;;;;;;;34.25;15.48;;;5.60;85.20;;;;;;5093157;28;20024;-15
2022/11/15 07:08:00;;;;;;;41.97;16.38;;;5.60;85.00;;;;;;5092950;28;20534;-13
2022/11/15 07:10:27;;;;;;;30.98;15.55;;;5.60;85.20;;;;;;5093158;28;20028;-14
2022/11/15 07:12:55;;;;;;;44.38;17.35;;;5.60;85.30;;;;;;5092807;28;20024;-13
2022/11/15 07:15:23;;;;;;;37.40;15.52;;;5.60;85.20;;;;;;5093002;28;20052;-13
2022/11/15 07:17:49;;;;;;;32.33;14.35;;;5.60;85.20;;;;;;5093164;28;20031;-14
2022/11/15 07:20:16;;;;;;;34.08;16.90;;;5.70;85.40;;;;;;5092983;28;20040;-13
2022/11/15 07:22:45;;;;;;;33.13;16.88;;;5.80;85.40;;;;;;5092825;28;20060;-14
2022/11/15 07:25:11;;;;;;;41.85;16.35;;;5.90;85.40;;;;;;5092697;28;20032;-13
2022/11/15 07:27:38;;;;;;;37.22;17.27;;;5.90;85.60;;;;;;5093113;28;20032;-14
2022/11/15 07:30:05;;;;;;;39.13;16.77;;;5.90;85.60;;;;;;5092870;28;20020;-13
2022/11/15 07:32:31;;;;;;;33.90;16.13;;;6.00;85.40;;;;;;5093030;28;20020;-14
2022/11/15 07:34:56;;;;;;;46.05;15.90;;;6.00;85.20;;;;;;5092749;28;20142;-14
2022/11/15 07:37:23;;;;;;;34.30;15.27;;;6.00;85.10;;;;;;5092935;28;20048;-13
2022/11/15 07:39:49;;;;;;;39.63;15.70;;;6.00;84.90;;;;;;5091569;28;20063;-13
2022/11/15 07:44:59;;;;;;;33.28;14.80;;;6.00;85.10;;;;;;5096382;28;20030;-13
2022/11/15 07:47:25;;;;;;;44.15;16.05;;;6.00;85.10;;;;;;5096464;28;20115;-13
2022/11/15 07:49:51;;;;;;;31.73;15.30;;;5.90;85.10;;;;;;5096823;28;20028;-13
2022/11/15 07:52:17;;;;;;;45.28;16.17;;;5.90;85.10;;;;;;5096281;28;20032;-13
2022/11/15 07:54:43;;;;;;;40.92;15.57;;;5.90;85.40;;;;;;5096622;28;20028;-13
2022/11/15 07:57:09;;;;;;;35.05;15.07;;;5.90;85.50;;;;;;5096298;28;20051;-13
2022/11/15 07:59:36;;;;;;;53.22;29.77;;;5.90;85.60;;;;;;5096130;28;20055;-13
2022/11/15 08:02:02;;;;;;;36.30;14.27;;;5.90;85.60;;;;;;5095032;28;20101;-13
2022/11/15 08:04:28;;;;;;;52.45;22.02;;;5.90;85.80;;;;;;5096131;28;20513;-13
2022/11/15 08:06:54;;;;;;;34.92;18.77;;;6.10;86.00;;;;;;5096082;28;20055;-14
2022/11/15 08:09:20;;;;;;;46.08;17.13;;;6.10;86.00;;;;;;5096303;28;20024;-13
2022/11/15 08:11:46;;;;;;;37.00;15.23;;;6.20;86.00;;;;;;5095968;28;20035;-13
2022/11/15 08:14:12;;;;;;;32.08;16.98;;;6.30;85.90;;;;;;5096140;28;20024;-14
2022/11/15 08:16:38;;;;;;;47.78;16.25;;;6.50;85.90;;;;;;5095707;28;20055;-13
2022/11/15 08:19:04;;;;;;;32.88;17.25;;;6.70;85.80;;;;;;5095779;28;20016;-14
2022/11/15 08:21:30;;;;;;;27.55;14.68;;;6.90;85.50;;;;;;5096008;28;20040;-14
2022/11/15 08:23:56;;;;;;;24.60;13.82;;;7.00;85.30;;;;;;5096095;28;20394;-13
2022/11/15 08:26:22;;;;;;;35.50;14.45;;;7.20;85.00;;;;;;5095770;28;20024;-13
2022/11/15 08:28:48;;;;;;;26.88;13.40;;;7.30;84.70;;;;;;5095442;28;20504;-14
2022/11/15 08:31:17;;;;;;;33.97;15.88;;;7.40;84.50;;;;;;5095701;28;20032;-13
2022/11/15 08:33:43;;;;;;;23.80;14.90;;;7.60;84.30;;;;;;5095608;28;20410;-13
2022/11/15 08:36:14;;;;;;;35.70;17.60;;;7.70;84.40;;;;;;5095529;28;20032;-12
2022/11/15 08:38:41;;;;;;;28.38;15.43;;;7.80;84.60;;;;;;5096268;28;20028;-12
2022/11/15 08:41:07;;;;;;;32.83;15.50;;;7.90;83.80;;;;;;5095298;28;20054;-13
2022/11/15 08:43:33;;;;;;;37.72;16.83;;;8.10;83.70;;;;;;5094189;28;20023;-13
2022/11/15 08:45:59;;;;;;;29.88;15.65;;;8.20;83.80;;;;;;5095550;28;20028;-13
2022/11/15 08:48:25;;;;;;;25.58;14.35;;;8.30;83.90;;;;;;5095570;28;20017;-13
2022/11/15 08:50:56;;;;;;;38.03;16.55;;;8.40;84.00;;;;;;5095253;28;20024;-14
2022/11/15 08:53:22;;;;;;;26.75;13.45;;;8.50;83.70;;;;;;5095050;28;20028;-12
2022/11/15 08:55:47;;;;;;;25.15;12.88;;;8.60;83.40;;;;;;5094430;28;20032;-13
2022/11/15 08:58:13;;;;;;;24.65;14.30;;;8.60;83.50;;;;;;5094997;28;20032;-12
2022/11/15 09:00:39;;;;;;;26.10;13.70;;;8.70;83.50;;;;;;5095109;28;20034;-13
2022/11/15 09:03:06;;;;;;;31.90;16.38;;;8.90;83.20;;;;;;5094714;28;20032;-14
2022/11/15 09:05:32;;;;;;;22.05;13.57;;;9.10;83.20;;;;;;5095313;28;20074;-14
2022/11/15 09:07:58;;;;;;;24.60;14.40;;;9.30;83.10;;;;;;5095139;28;20020;-13
2022/11/15 09:10:24;;;;;;;26.42;14.13;;;9.50;83.20;;;;;;5095208;28;20020;-12
2022/11/15 09:12:50;;;;;;;29.13;14.98;;;9.60;82.80;;;;;;5094868;28;20111;-12
2022/11/15 09:15:17;;;;;;;23.25;14.32;;;9.70;82.50;;;;;;5094388;28;20052;-13
2022/11/15 09:17:43;;;;;;;31.08;18.10;;;9.90;82.50;;;;;;5094672;28;20122;-13
2022/11/15 09:20:10;;;;;;;41.40;26.05;;;10.00;82.10;;;;;;5094954;28;20096;-13
2022/11/15 09:22:36;;;;;;;22.95;14.80;;;10.00;82.10;;;;;;5095411;28;20045;-13
2022/11/15 09:25:03;;;;;;;24.58;15.40;;;10.00;81.80;;;;;;5094445;28;20026;-13
2022/11/15 09:27:30;;;;;;;26.58;15.00;;;10.00;82.00;;;;;;5094749;28;20353;-13
2022/11/15 09:29:55;;;;;;;20.90;12.82;;;9.90;81.90;;;;;;5094832;28;20035;-13
2022/11/15 09:32:24;;;;;;;26.50;16.52;;;9.90;82.30;;;;;;5094497;28;20028;-13
2022/11/15 09:34:50;;;;;;;21.90;13.35;;;10.00;82.60;;;;;;5094432;28;20548;-15
2022/11/15 09:37:17;;;;;;;20.70;12.65;;;10.00;82.60;;;;;;5094404;28;20107;-13
2022/11/15 09:39:42;;;;;;;19.52;12.88;;;10.10;82.80;;;;;;5094320;28;20028;-13
2022/11/15 09:42:09;;;;;;;22.90;14.80;;;10.20;82.90;;;;;;5094455;28;20031;-13
2022/11/15 09:44:48;;;;;;;23.10;15.40;;;10.30;82.90;;;;;;5094683;28;20024;-13
2022/11/15 09:47:32;;;;;;;19.80;12.70;;;10.30;82.50;;;;;;5094237;28;20118;-11
2022/11/15 09:50:01;;;;;;;16.27;11.07;;;10.30;82.40;;;;;;5094752;28;20024;-12
2022/11/15 09:52:28;;;;;;;17.65;11.45;;;10.30;82.40;;;;;;5093998;28;20076;-12
2022/11/15 09:54:54;;;;;;;16.42;10.85;;;10.40;82.50;;;;;;5093809;28;20384;-13
2022/11/15 09:57:41;;;;;;;18.40;11.88;;;10.40;82.60;;;;;;5094515;28;20020;-12
2022/11/15 10:00:32;;;;;;;18.05;11.93;;;10.50;82.40;;;;;;5093993;28;20035;-12
2022/11/15 10:03:12;;;;;;;20.80;13.30;;;10.60;82.40;;;;;;5092376;28;20035;-12
2022/11/15 10:05:42;;;;;;;18.98;12.40;;;10.60;82.20;;;;;;5093784;28;20035;-13
2022/11/15 10:08:29;;;;;;;20.38;12.77;;;10.70;81.80;;;;;;5094038;28;20160;-11
2022/11/15 10:11:17;;;;;;;20.65;13.63;;;10.80;81.50;;;;;;5093747;28;20028;-12
2022/11/15 10:13:47;;;;;;;21.83;13.77;;;10.80;81.50;;;;;;5136571;22;20412;-19
2022/11/15 10:16:28;;;;;;;17.65;11.55;;;10.90;81.60;;;;;;5053850;28;20048;-20
2022/11/15 10:19:28;;;;;;;17.73;12.32;;;11.00;81.50;;;;;;5053279;28;20487;-20
2022/11/15 10:22:15;;;;;;;20.48;13.20;;;11.20;81.10;;;;;;5053783;28;20079;-20
2022/11/15 10:24:44;;;;;;;19.90;12.82;;;11.30;80.70;;;;;;5053621;28;20079;-20
2022/11/15 10:27:15;;;;;;;19.50;12.68;;;11.40;80.40;;;;;;5053421;28;20025;-20
2022/11/15 10:29:49;;;;;;;21.60;13.75;;;11.50;80.10;;;;;;5053298;28;20083;-19
2022/11/15 10:32:20;;;;;;;;;;;11.60;79.80;;;;;;5053883;28;20096;-19
2022/11/15 10:34:48;;;;;;;19.98;13.15;;;11.70;79.60;;;;;;5053272;28;20378;-19
2022/11/15 10:40:19;;;;;;;22.90;13.60;;;11.90;79.20;;;;;;5108404;27;20440;-17
2022/11/15 10:42:45;;;;;;;22.83;14.98;;;11.90;78.80;;;;;;5111007;28;20027;-17
2022/11/15 10:45:25;;;;;;;21.50;14.07;;;12.10;78.70;;;;;;5110816;28;20099;-18
2022/11/15 10:47:51;;;;;;;23.77;15.13;;;12.20;77.90;;;;;;5111007;28;20031;-17
2022/11/15 10:50:32;;;;;;;24.23;15.30;;;12.40;77.70;;;;;;5110925;28;20019;-17
2022/11/15 10:53:02;;;;;;;24.75;15.15;;;12.50;77.80;;;;;;5111049;28;20490;-17
2022/11/15 10:55:33;;;;;;;25.85;16.13;;;12.60;77.30;;;;;;5110762;28;20036;-16
2022/11/15 10:58:20;;;;;;;22.67;14.63;;;12.90;77.20;;;;;;5110904;28;20069;-17
2022/11/15 11:00:47;;;;;;;23.10;15.10;;;13.10;76.30;;;;;;5110656;28;20032;-17
2022/11/15 11:03:37;;;;;;;24.17;15.30;;;13.30;75.90;;;;;;5110984;28;20471;-17
2022/11/15 11:06:17;;;;;;;21.45;14.05;;;13.40;75.70;;;;;;5110972;28;20039;-17
2022/11/15 11:08:55;;;;;;;22.50;14.63;;;13.50;75.80;;;;;;5110924;28;20096;-18
2022/11/15 11:11:21;;;;;;;22.55;13.25;;;13.50;75.90;;;;;;5110746;28;20096;-17
2022/11/15 11:13:48;;;;;;;20.77;13.50;;;13.60;76.10;;;;;;5110264;28;20028;-17
2022/11/15 11:16:14;;;;;;;22.08;13.95;;;13.70;75.40;;;;;;5110740;28;20032;-17
2022/11/15 11:19:02;;;;;;;20.20;13.73;;;13.80;75.30;;;;;;5110235;28;20040;-16
2022/11/15 11:22:14;;;;;;;20.25;12.80;;;13.90;74.80;;;;;;5110338;28;20035;-17
2022/11/15 11:25:19;;;;;;;17.42;11.90;;;13.90;74.50;;;;;;5110229;28;20036;-18
2022/11/15 11:28:23;;;;;;;19.73;12.75;;;13.80;74.80;;;;;;5110427;28;20028;-17
2022/11/15 11:31:08;;;;;;;17.48;11.18;;;13.80;75.00;;;;;;5109928;28;20034;-18
2022/11/15 11:34:11;;;;;;;25.80;14.93;;;13.70;74.80;;;;;;5108813;28;20371;-17
2022/11/15 11:36:50;;;;;;;21.67;12.75;;;13.60;75.20;;;;;;5109981;28;20492;-16
2022/11/15 11:39:47;;;;;;;19.52;12.75;;;13.60;75.40;;;;;;5109940;28;20075;-17
2022/11/15 11:42:43;;;;;;;17.73;10.93;;;13.60;75.30;;;;;;5109948;28;20107;-17
2022/11/15 11:45:27;;;;;;;20.65;14.02;;;13.80;75.20;;;;;;5109692;28;20052;-18
2022/11/15 11:48:20;;;;;;;21.08;12.88;;;13.90;74.20;;;;;;5110276;28;20032;-18
2022/11/15 11:50:47;;;;;;;21.08;13.80;;;13.90;73.70;;;;;;5100072;28;20439;-17
2022/11/15 11:53:38;;;;;;;19.92;12.23;;;14.00;72.90;;;;;;5096184;28;20024;-17
2022/11/15 11:56:23;;;;;;;21.08;13.20;;;14.00;73.10;;;;;;5096098;28;20032;-17
2022/11/15 11:58:52;;;;;;;23.27;14.85;;;13.90;73.50;;;;;;5095677;28;20032;-17
2022/11/15 12:01:28;;;;;;;21.42;13.95;;;13.90;73.60;;;;;;5096018;28;20024;-18
2022/11/15 12:04:09;;;;;;;19.13;11.98;;;13.80;73.90;;;;;;5096270;28;20103;-17
2022/11/15 12:06:45;;;;;;;26.33;15.25;;;13.70;74.20;;;;;;5096220;28;20047;-18
2022/11/15 12:09:48;;;;;;;23.08;14.57;;;13.50;74.80;;;;;;5095662;28;20378;-17
2022/11/15 12:12:45;;;;;;;26.70;15.02;;;13.50;75.00;;;;;;5096645;28;20024;-17
2022/11/15 12:15:29;;;;;;;22.10;13.30;;;13.40;75.20;;;;;;5095578;28;20463;-18
2022/11/15 12:17:57;;;;;;;23.25;15.20;;;13.20;75.60;;;;;;5095947;28;20031;-16
2022/11/15 12:20:30;;;;;;;21.75;13.60;;;13.10;75.90;;;;;;5095903;28;20056;-17
2022/11/15 12:23:03;;;;;;;21.40;14.13;;;13.10;76.10;;;;;;5095521;28;20069;-17
2022/11/15 12:25:31;;;;;;;;;;;13.10;76.10;;;;;;5095945;28;20077;-17
2022/11/15 12:27:57;;;;;;;20.85;13.43;;;13.10;75.60;;;;;;5095311;28;19903;-17
2022/11/15 12:30:27;;;;;;;24.92;15.05;;;13.10;76.10;;;;;;5095720;28;20028;-17
2022/11/15 12:33:00;;;;;;;22.85;14.93;;;13.20;76.10;;;;;;5095792;28;20058;-17
2022/11/15 12:35:39;;;;;;;23.90;14.68;;;13.10;76.10;;;;;;5095980;28;20043;-17
2022/11/15 12:38:11;;;;;;;20.23;13.00;;;13.00;76.20;;;;;;5094960;28;20056;-18
2022/11/15 12:40:56;;;;;;;20.45;13.63;;;13.00;76.50;;;;;;5095269;28;20024;-17
2022/11/15 12:43:41;;;;;;;22.05;13.50;;;13.10;76.50;;;;;;5095093;28;20024;-18
2022/11/15 12:46:31;;;;;;;25.70;15.88;;;13.10;76.50;;;;;;5095140;28;20016;-17
2022/11/15 12:49:27;;;;;;;19.65;12.77;;;13.10;76.50;;;;;;5083497;28;20036;-17
2022/11/15 12:51:56;;;;;;;19.92;11.30;;;13.10;76.50;;;;;;5094750;28;20557;-16
2022/11/15 12:54:22;;;;;;;21.95;13.70;;;13.20;76.70;;;;;;5095568;28;20028;-17
2022/11/15 12:57:03;;;;;;;23.02;15.40;;;13.20;76.70;;;;;;5094625;28;20039;-17
2022/11/15 12:59:51;;;;;;;18.40;12.25;;;13.20;76.50;;;;;;5094983;28;20028;-17
2022/11/15 13:02:32;;;;;;;18.17;11.60;;;13.10;76.60;;;;;;5094004;28;20374;-17
2022/11/15 13:05:19;;;;;;;25.58;15.95;;;13.00;76.80;;;;;;5094819;28;20028;-18
2022/11/15 13:07:45;;;;;;;23.90;15.80;;;13.00;77.00;;;;;;5094673;28;20035;-17
2022/11/15 13:10:14;;;;;;;19.70;12.43;;;12.90;77.00;;;;;;5094918;28;20056;-17
2022/11/15 13:12:46;;;;;;;17.05;11.32;;;12.90;77.00;;;;;;5094741;28;20028;-18